Sunbury, Illinois
Current Conditions -  °F | °C
As of 7:35 PM on Friday 24 Oct 2014 (Local Time) from KPNT Reporting Station
Clear Clear  
Wind Chill: 59°   Ceiling: Unl
Heat Index: 59°   Visibility: 7mi
Dew Point: 52°   Wind: 6mph
Humidity: 78%   Direction: 200°SSW
Pressure: 29.98"   Gusts: NA
Location:  41.0632°N, 88.6426°W
Report Text: KPNT 250035Z AUTO 20005KT 7SM CLR 15/11 A2998 RMK AO2 T01480110
Loading
Personal Weather Stations






























Interactive Weather Map
Tropical Storm Tracking
New forecast layout! Learn more

10-Day Weather Forecast

Advertisements
Track Severe Weather on mobile